sensor_id;sensor_type;location;lat;lon;timestamp;P1;durP1;ratioP1;P2;durP2;ratioP2
15667;SDS011;7934;48.710;9.024;2024-01-30T00:01:54;5.83;;;5.20;;
15667;SDS011;7934;48.710;9.024;2024-01-30T00:04:23;7.50;;;5.33;;
15667;SDS011;7934;48.710;9.024;2024-01-30T00:06:53;7.87;;;5.50;;
15667;SDS011;7934;48.710;9.024;2024-01-30T00:09:20;6.47;;;5.07;;
15667;SDS011;7934;48.710;9.024;2024-01-30T00:11:48;7.97;;;5.20;;
15667;SDS011;7934;48.710;9.024;2024-01-30T00:14:18;6.70;;;5.00;;
15667;SDS011;7934;48.710;9.024;2024-01-30T00:16:54;5.93;;;5.33;;
15667;SDS011;7934;48.710;9.024;2024-01-30T00:19:22;8.73;;;5.90;;
15667;SDS011;7934;48.710;9.024;2024-01-30T00:21:50;10.67;;;5.80;;
15667;SDS011;7934;48.710;9.024;2024-01-30T00:24:17;6.67;;;5.37;;
15667;SDS011;7934;48.710;9.024;2024-01-30T00:26:58;9.53;;;5.17;;
15667;SDS011;7934;48.710;9.024;2024-01-30T00:29:29;5.43;;;4.83;;
15667;SDS011;7934;48.710;9.024;2024-01-30T00:32:00;8.87;;;5.20;;
15667;SDS011;7934;48.710;9.024;2024-01-30T00:34:27;8.30;;;6.13;;
15667;SDS011;7934;48.710;9.024;2024-01-30T00:36:55;8.33;;;5.40;;
15667;SDS011;7934;48.710;9.024;2024-01-30T00:39:25;17.37;;;6.17;;
15667;SDS011;7934;48.710;9.024;2024-01-30T00:41:53;8.90;;;5.50;;
15667;SDS011;7934;48.710;9.024;2024-01-30T00:44:20;7.67;;;5.63;;
15667;SDS011;7934;48.710;9.024;2024-01-30T00:47:03;8.80;;;5.60;;
15667;SDS011;7934;48.710;9.024;2024-01-30T00:49:33;10.17;;;5.80;;
15667;SDS011;7934;48.710;9.024;2024-01-30T00:52:00;8.67;;;5.77;;
15667;SDS011;7934;48.710;9.024;2024-01-30T00:54:29;11.33;;;6.13;;
15667;SDS011;7934;48.710;9.024;2024-01-30T00:56:58;8.43;;;5.87;;
15667;SDS011;7934;48.710;9.024;2024-01-30T00:59:33;8.67;;;6.00;;
15667;SDS011;7934;48.710;9.024;2024-01-30T01:02:08;9.73;;;6.30;;
15667;SDS011;7934;48.710;9.024;2024-01-30T01:04:36;14.30;;;6.47;;
15667;SDS011;7934;48.710;9.024;2024-01-30T01:07:17;7.43;;;5.20;;
15667;SDS011;7934;48.710;9.024;2024-01-30T01:09:48;7.83;;;5.70;;
15667;SDS011;7934;48.710;9.024;2024-01-30T01:12:15;10.00;;;6.00;;
15667;SDS011;7934;48.710;9.024;2024-01-30T01:14:56;8.40;;;5.93;;
15667;SDS011;7934;48.710;9.024;2024-01-30T01:17:27;6.70;;;5.67;;
15667;SDS011;7934;48.710;9.024;2024-01-30T01:19:54;6.70;;;5.83;;
15667;SDS011;7934;48.710;9.024;2024-01-30T01:22:23;10.47;;;6.03;;
15667;SDS011;7934;48.710;9.024;2024-01-30T01:24:51;7.67;;;5.93;;
15667;SDS011;7934;48.710;9.024;2024-01-30T01:27:18;6.93;;;5.90;;
15667;SDS011;7934;48.710;9.024;2024-01-30T01:29:46;7.27;;;5.30;;
15667;SDS011;7934;48.710;9.024;2024-01-30T01:32:13;7.47;;;5.70;;
15667;SDS011;7934;48.710;9.024;2024-01-30T01:37:25;8.27;;;6.10;;
15667;SDS011;7934;48.710;9.024;2024-01-30T01:39:52;6.03;;;5.40;;
15667;SDS011;7934;48.710;9.024;2024-01-30T01:42:20;10.07;;;6.37;;
15667;SDS011;7934;48.710;9.024;2024-01-30T01:44:47;8.87;;;5.63;;
15667;SDS011;7934;48.710;9.024;2024-01-30T01:47:16;7.50;;;5.97;;
15667;SDS011;7934;48.710;9.024;2024-01-30T01:49:51;8.17;;;6.33;;
15667;SDS011;7934;48.710;9.024;2024-01-30T01:52:19;9.23;;;6.03;;
15667;SDS011;7934;48.710;9.024;2024-01-30T01:54:51;10.40;;;6.67;;
15667;SDS011;7934;48.710;9.024;2024-01-30T01:57:21;9.63;;;6.83;;
15667;SDS011;7934;48.710;9.024;2024-01-30T01:59:52;11.37;;;6.70;;
15667;SDS011;7934;48.710;9.024;2024-01-30T02:02:23;8.17;;;6.47;;
15667;SDS011;7934;48.710;9.024;2024-01-30T02:04:58;7.23;;;6.03;;
15667;SDS011;7934;48.710;9.024;2024-01-30T02:07:34;10.10;;;6.27;;
15667;SDS011;7934;48.710;9.024;2024-01-30T02:10:03;8.70;;;6.10;;
15667;SDS011;7934;48.710;9.024;2024-01-30T02:12:30;8.70;;;5.70;;
15667;SDS011;7934;48.710;9.024;2024-01-30T02:14:59;6.33;;;5.57;;
15667;SDS011;7934;48.710;9.024;2024-01-30T02:17:27;8.47;;;6.03;;
15667;SDS011;7934;48.710;9.024;2024-01-30T02:20:08;8.33;;;6.27;;
15667;SDS011;7934;48.710;9.024;2024-01-30T02:22:38;7.93;;;6.03;;
15667;SDS011;7934;48.710;9.024;2024-01-30T02:25:05;8.00;;;5.93;;
15667;SDS011;7934;48.710;9.024;2024-01-30T02:27:46;9.63;;;6.10;;
15667;SDS011;7934;48.710;9.024;2024-01-30T02:30:15;8.17;;;6.30;;
15667;SDS011;7934;48.710;9.024;2024-01-30T02:32:56;9.07;;;6.43;;
15667;SDS011;7934;48.710;9.024;2024-01-30T02:35:24;11.60;;;7.27;;
15667;SDS011;7934;48.710;9.024;2024-01-30T02:37:59;7.77;;;6.90;;
15667;SDS011;7934;48.710;9.024;2024-01-30T02:40:27;10.47;;;7.27;;
15667;SDS011;7934;48.710;9.024;2024-01-30T02:42:55;10.43;;;7.07;;
15667;SDS011;7934;48.710;9.024;2024-01-30T02:45:24;12.83;;;5.70;;
15667;SDS011;7934;48.710;9.024;2024-01-30T02:47:52;9.30;;;6.40;;
15667;SDS011;7934;48.710;9.024;2024-01-30T02:50:19;5.97;;;5.37;;
15667;SDS011;7934;48.710;9.024;2024-01-30T02:52:48;7.13;;;5.60;;
15667;SDS011;7934;48.710;9.024;2024-01-30T02:57:59;6.63;;;5.90;;
15667;SDS011;7934;48.710;9.024;2024-01-30T03:00:40;7.37;;;5.97;;
15667;SDS011;7934;48.710;9.024;2024-01-30T03:03:09;10.23;;;5.70;;
15667;SDS011;7934;48.710;9.024;2024-01-30T03:05:37;8.23;;;5.43;;
15667;SDS011;7934;48.710;9.024;2024-01-30T03:08:12;6.80;;;5.80;;
15667;SDS011;7934;48.710;9.024;2024-01-30T03:10:39;9.27;;;5.87;;
15667;SDS011;7934;48.710;9.024;2024-01-30T03:13:08;9.13;;;6.13;;
15667;SDS011;7934;48.710;9.024;2024-01-30T03:15:36;11.60;;;6.67;;
15667;SDS011;7934;48.710;9.024;2024-01-30T03:18:04;11.80;;;6.37;;
15667;SDS011;7934;48.710;9.024;2024-01-30T03:20:45;9.43;;;6.00;;
15667;SDS011;7934;48.710;9.024;2024-01-30T03:23:13;9.40;;;6.37;;
15667;SDS011;7934;48.710;9.024;2024-01-30T03:25:40;7.67;;;5.87;;
15667;SDS011;7934;48.710;9.024;2024-01-30T03:31:00;7.73;;;6.33;;
15667;SDS011;7934;48.710;9.024;2024-01-30T03:33:28;10.13;;;7.10;;
15667;SDS011;7934;48.710;9.024;2024-01-30T03:35:55;8.27;;;7.03;;
15667;SDS011;7934;48.710;9.024;2024-01-30T03:38:23;11.60;;;6.77;;
15667;SDS011;7934;48.710;9.024;2024-01-30T03:41:07;10.33;;;7.50;;
15667;SDS011;7934;48.710;9.024;2024-01-30T03:43:34;10.40;;;7.13;;
15667;SDS011;7934;48.710;9.024;2024-01-30T03:46:08;8.00;;;6.53;;
15667;SDS011;7934;48.710;9.024;2024-01-30T03:48:36;11.47;;;7.00;;
15667;SDS011;7934;48.710;9.024;2024-01-30T03:51:04;11.70;;;7.37;;
15667;SDS011;7934;48.710;9.024;2024-01-30T03:53:45;11.50;;;7.93;;
15667;SDS011;7934;48.710;9.024;2024-01-30T03:56:12;9.80;;;6.67;;
15667;SDS011;7934;48.710;9.024;2024-01-30T03:58:41;8.33;;;5.73;;
15667;SDS011;7934;48.710;9.024;2024-01-30T04:01:25;11.57;;;7.37;;
15667;SDS011;7934;48.710;9.024;2024-01-30T04:03:53;10.87;;;7.03;;
15667;SDS011;7934;48.710;9.024;2024-01-30T04:06:20;8.47;;;6.17;;
15667;SDS011;7934;48.710;9.024;2024-01-30T04:08:48;8.87;;;6.40;;
15667;SDS011;7934;48.710;9.024;2024-01-30T04:11:18;8.97;;;5.90;;
15667;SDS011;7934;48.710;9.024;2024-01-30T04:13:45;8.30;;;5.80;;
15667;SDS011;7934;48.710;9.024;2024-01-30T04:16:18;8.30;;;6.20;;
15667;SDS011;7934;48.710;9.024;2024-01-30T04:18:49;7.33;;;5.53;;
15667;SDS011;7934;48.710;9.024;2024-01-30T04:21:16;7.83;;;5.67;;
15667;SDS011;7934;48.710;9.024;2024-01-30T04:23:48;9.20;;;5.93;;
15667;SDS011;7934;48.710;9.024;2024-01-30T04:26:16;6.73;;;5.47;;
15667;SDS011;7934;48.710;9.024;2024-01-30T04:28:44;8.77;;;6.17;;
15667;SDS011;7934;48.710;9.024;2024-01-30T04:31:11;9.57;;;5.83;;
15667;SDS011;7934;48.710;9.024;2024-01-30T04:33:40;13.67;;;6.77;;
15667;SDS011;7934;48.710;9.024;2024-01-30T04:36:14;8.80;;;5.73;;
15667;SDS011;7934;48.710;9.024;2024-01-30T04:38:41;6.63;;;5.60;;
15667;SDS011;7934;48.710;9.024;2024-01-30T04:41:12;7.10;;;5.90;;
15667;SDS011;7934;48.710;9.024;2024-01-30T04:43:39;10.27;;;5.83;;
15667;SDS011;7934;48.710;9.024;2024-01-30T04:46:07;8.30;;;6.57;;
15667;SDS011;7934;48.710;9.024;2024-01-30T04:48:35;12.20;;;7.03;;
15667;SDS011;7934;48.710;9.024;2024-01-30T04:51:04;7.93;;;6.37;;
15667;SDS011;7934;48.710;9.024;2024-01-30T04:53:40;11.70;;;6.43;;
15667;SDS011;7934;48.710;9.024;2024-01-30T04:56:07;11.30;;;7.17;;
15667;SDS011;7934;48.710;9.024;2024-01-30T04:58:35;10.97;;;6.57;;
15667;SDS011;7934;48.710;9.024;2024-01-30T05:01:04;9.23;;;6.37;;
15667;SDS011;7934;48.710;9.024;2024-01-30T05:03:32;10.17;;;5.90;;
15667;SDS011;7934;48.710;9.024;2024-01-30T05:06:00;7.53;;;6.00;;
15667;SDS011;7934;48.710;9.024;2024-01-30T05:08:29;8.00;;;5.63;;
15667;SDS011;7934;48.710;9.024;2024-01-30T05:11:01;11.50;;;5.97;;
15667;SDS011;7934;48.710;9.024;2024-01-30T05:13:32;11.07;;;5.70;;
15667;SDS011;7934;48.710;9.024;2024-01-30T05:16:01;11.00;;;6.07;;
15667;SDS011;7934;48.710;9.024;2024-01-30T05:18:30;15.63;;;7.83;;
15667;SDS011;7934;48.710;9.024;2024-01-30T05:20:59;8.17;;;5.83;;
15667;SDS011;7934;48.710;9.024;2024-01-30T05:23:28;6.90;;;6.20;;
15667;SDS011;7934;48.710;9.024;2024-01-30T05:25:55;8.73;;;6.27;;
15667;SDS011;7934;48.710;9.024;2024-01-30T05:28:29;9.33;;;6.47;;
15667;SDS011;7934;48.710;9.024;2024-01-30T05:30:57;7.40;;;5.70;;
15667;SDS011;7934;48.710;9.024;2024-01-30T05:33:24;8.50;;;5.70;;
15667;SDS011;7934;48.710;9.024;2024-01-30T05:35:52;7.43;;;5.50;;
15667;SDS011;7934;48.710;9.024;2024-01-30T05:38:33;9.53;;;5.60;;
15667;SDS011;7934;48.710;9.024;2024-01-30T05:41:01;8.20;;;6.07;;
15667;SDS011;7934;48.710;9.024;2024-01-30T05:43:31;9.23;;;6.30;;
15667;SDS011;7934;48.710;9.024;2024-01-30T05:45:58;11.47;;;7.53;;
15667;SDS011;7934;48.710;9.024;2024-01-30T05:48:26;14.03;;;6.90;;
15667;SDS011;7934;48.710;9.024;2024-01-30T05:50:54;12.90;;;6.90;;
15667;SDS011;7934;48.710;9.024;2024-01-30T05:53:31;11.50;;;7.30;;
15667;SDS011;7934;48.710;9.024;2024-01-30T05:56:12;16.07;;;9.30;;
15667;SDS011;7934;48.710;9.024;2024-01-30T05:58:42;15.30;;;7.70;;
15667;SDS011;7934;48.710;9.024;2024-01-30T06:01:10;14.73;;;8.80;;
15667;SDS011;7934;48.710;9.024;2024-01-30T06:03:38;15.27;;;9.73;;
15667;SDS011;7934;48.710;9.024;2024-01-30T06:06:05;14.50;;;9.50;;
15667;SDS011;7934;48.710;9.024;2024-01-30T06:08:33;17.30;;;9.47;;
15667;SDS011;7934;48.710;9.024;2024-01-30T06:11:02;14.80;;;9.40;;
15667;SDS011;7934;48.710;9.024;2024-01-30T06:13:30;19.13;;;9.57;;
15667;SDS011;7934;48.710;9.024;2024-01-30T06:16:00;13.60;;;8.77;;
15667;SDS011;7934;48.710;9.024;2024-01-30T06:18:42;16.60;;;8.80;;
15667;SDS011;7934;48.710;9.024;2024-01-30T06:21:09;16.90;;;9.17;;
15667;SDS011;7934;48.710;9.024;2024-01-30T06:23:37;19.63;;;9.63;;
15667;SDS011;7934;48.710;9.024;2024-01-30T06:26:08;13.23;;;8.43;;
15667;SDS011;7934;48.710;9.024;2024-01-30T06:28:36;12.50;;;8.17;;
15667;SDS011;7934;48.710;9.024;2024-01-30T06:31:07;14.93;;;7.67;;
15667;SDS011;7934;48.710;9.024;2024-01-30T06:33:48;12.70;;;7.33;;
15667;SDS011;7934;48.710;9.024;2024-01-30T06:36:18;12.67;;;7.87;;
15667;SDS011;7934;48.710;9.024;2024-01-30T06:38:47;10.73;;;7.00;;
15667;SDS011;7934;48.710;9.024;2024-01-30T06:41:14;14.30;;;7.37;;
15667;SDS011;7934;48.710;9.024;2024-01-30T06:43:41;11.20;;;7.80;;
15667;SDS011;7934;48.710;9.024;2024-01-30T06:46:19;11.10;;;7.80;;
15667;SDS011;7934;48.710;9.024;2024-01-30T06:48:48;17.27;;;7.40;;
15667;SDS011;7934;48.710;9.024;2024-01-30T06:51:16;12.67;;;7.70;;
15667;SDS011;7934;48.710;9.024;2024-01-30T06:53:43;19.67;;;8.07;;
15667;SDS011;7934;48.710;9.024;2024-01-30T06:56:11;14.50;;;7.97;;
15667;SDS011;7934;48.710;9.024;2024-01-30T06:58:52;11.40;;;7.03;;
15667;SDS011;7934;48.710;9.024;2024-01-30T07:01:23;10.93;;;7.53;;
15667;SDS011;7934;48.710;9.024;2024-01-30T07:03:54;11.67;;;7.47;;
15667;SDS011;7934;48.710;9.024;2024-01-30T07:06:23;12.83;;;7.50;;
15667;SDS011;7934;48.710;9.024;2024-01-30T07:08:54;10.03;;;7.53;;
15667;SDS011;7934;48.710;9.024;2024-01-30T07:11:22;10.83;;;7.70;;
15667;SDS011;7934;48.710;9.024;2024-01-30T07:13:50;10.73;;;8.07;;
15667;SDS011;7934;48.710;9.024;2024-01-30T07:19:04;16.93;;;7.30;;
15667;SDS011;7934;48.710;9.024;2024-01-30T07:21:34;13.87;;;7.83;;
15667;SDS011;7934;48.710;9.024;2024-01-30T07:24:03;12.73;;;8.13;;
15667;SDS011;7934;48.710;9.024;2024-01-30T07:26:34;9.93;;;6.67;;
15667;SDS011;7934;48.710;9.024;2024-01-30T07:29:02;8.43;;;7.10;;
15667;SDS011;7934;48.710;9.024;2024-01-30T07:31:31;13.60;;;8.77;;
15667;SDS011;7934;48.710;9.024;2024-01-30T07:37:00;10.43;;;6.63;;
15667;SDS011;7934;48.710;9.024;2024-01-30T07:39:29;10.60;;;6.57;;
15667;SDS011;7934;48.710;9.024;2024-01-30T07:41:56;8.47;;;7.33;;
15667;SDS011;7934;48.710;9.024;2024-01-30T07:47:10;15.53;;;7.23;;
15667;SDS011;7934;48.710;9.024;2024-01-30T07:49:42;10.67;;;6.80;;
15667;SDS011;7934;48.710;9.024;2024-01-30T07:52:29;13.20;;;7.90;;
15667;SDS011;7934;48.710;9.024;2024-01-30T07:55:00;12.20;;;7.43;;
15667;SDS011;7934;48.710;9.024;2024-01-30T07:57:29;8.87;;;7.97;;
15667;SDS011;7934;48.710;9.024;2024-01-30T07:59:56;10.10;;;7.17;;
15667;SDS011;7934;48.710;9.024;2024-01-30T08:02:23;9.20;;;6.20;;
15667;SDS011;7934;48.710;9.024;2024-01-30T08:04:50;15.07;;;8.33;;
15667;SDS011;7934;48.710;9.024;2024-01-30T08:07:17;24.07;;;10.93;;
15667;SDS011;7934;48.710;9.024;2024-01-30T08:09:48;42.43;;;18.40;;
15667;SDS011;7934;48.710;9.024;2024-01-30T08:12:15;52.73;;;22.37;;
15667;SDS011;7934;48.710;9.024;2024-01-30T08:14:42;48.27;;;19.73;;
15667;SDS011;7934;48.710;9.024;2024-01-30T08:17:10;28.73;;;12.63;;
15667;SDS011;7934;48.710;9.024;2024-01-30T08:19:37;21.50;;;11.70;;
15667;SDS011;7934;48.710;9.024;2024-01-30T08:22:04;19.00;;;10.37;;
15667;SDS011;7934;48.710;9.024;2024-01-30T08:24:31;21.63;;;10.93;;
15667;SDS011;7934;48.710;9.024;2024-01-30T08:27:00;17.17;;;9.87;;
15667;SDS011;7934;48.710;9.024;2024-01-30T08:29:27;16.13;;;8.97;;
15667;SDS011;7934;48.710;9.024;2024-01-30T08:31:54;13.57;;;9.03;;
15667;SDS011;7934;48.710;9.024;2024-01-30T08:34:21;12.37;;;8.17;;
15667;SDS011;7934;48.710;9.024;2024-01-30T08:36:49;9.33;;;7.13;;
15667;SDS011;7934;48.710;9.024;2024-01-30T08:39:16;9.27;;;7.40;;
15667;SDS011;7934;48.710;9.024;2024-01-30T08:41:43;12.60;;;7.53;;
15667;SDS011;7934;48.710;9.024;2024-01-30T08:44:12;7.33;;;6.33;;
15667;SDS011;7934;48.710;9.024;2024-01-30T08:46:39;8.70;;;6.60;;
15667;SDS011;7934;48.710;9.024;2024-01-30T08:49:07;8.80;;;6.73;;
15667;SDS011;7934;48.710;9.024;2024-01-30T08:51:34;11.90;;;7.13;;
15667;SDS011;7934;48.710;9.024;2024-01-30T08:54:01;10.93;;;7.37;;
15667;SDS011;7934;48.710;9.024;2024-01-30T08:56:29;10.43;;;8.20;;
15667;SDS011;7934;48.710;9.024;2024-01-30T08:58:56;12.53;;;8.00;;
15667;SDS011;7934;48.710;9.024;2024-01-30T09:01:25;16.57;;;6.93;;
15667;SDS011;7934;48.710;9.024;2024-01-30T09:03:53;10.00;;;7.10;;
15667;SDS011;7934;48.710;9.024;2024-01-30T09:06:22;12.33;;;7.20;;
15667;SDS011;7934;48.710;9.024;2024-01-30T09:08:51;16.17;;;7.00;;
15667;SDS011;7934;48.710;9.024;2024-01-30T09:11:18;17.77;;;7.23;;
15667;SDS011;7934;48.710;9.024;2024-01-30T09:13:46;15.57;;;7.80;;
15667;SDS011;7934;48.710;9.024;2024-01-30T09:16:13;12.07;;;7.43;;
15667;SDS011;7934;48.710;9.024;2024-01-30T09:18:42;21.87;;;8.00;;
15667;SDS011;7934;48.710;9.024;2024-01-30T09:21:09;13.33;;;7.47;;
15667;SDS011;7934;48.710;9.024;2024-01-30T09:23:36;9.50;;;6.43;;
15667;SDS011;7934;48.710;9.024;2024-01-30T09:26:04;6.37;;;5.40;;
15667;SDS011;7934;48.710;9.024;2024-01-30T09:28:31;9.97;;;5.93;;
15667;SDS011;7934;48.710;9.024;2024-01-30T09:30:58;6.50;;;5.80;;
15667;SDS011;7934;48.710;9.024;2024-01-30T09:33:25;6.10;;;5.33;;
15667;SDS011;7934;48.710;9.024;2024-01-30T09:35:54;8.17;;;6.07;;
15667;SDS011;7934;48.710;9.024;2024-01-30T09:38:21;11.10;;;6.40;;
15667;SDS011;7934;48.710;9.024;2024-01-30T09:40:50;11.03;;;6.73;;
15667;SDS011;7934;48.710;9.024;2024-01-30T09:43:21;14.20;;;7.10;;
15667;SDS011;7934;48.710;9.024;2024-01-30T09:45:49;11.67;;;6.30;;
15667;SDS011;7934;48.710;9.024;2024-01-30T09:48:17;12.57;;;6.30;;
15667;SDS011;7934;48.710;9.024;2024-01-30T09:50:44;17.57;;;6.40;;
15667;SDS011;7934;48.710;9.024;2024-01-30T09:53:17;23.63;;;7.47;;
15667;SDS011;7934;48.710;9.024;2024-01-30T09:55:44;15.20;;;6.83;;
15667;SDS011;7934;48.710;9.024;2024-01-30T09:58:12;14.73;;;6.10;;
15667;SDS011;7934;48.710;9.024;2024-01-30T10:00:40;10.83;;;6.57;;
15667;SDS011;7934;48.710;9.024;2024-01-30T10:03:07;19.87;;;6.73;;
15667;SDS011;7934;48.710;9.024;2024-01-30T10:05:35;7.57;;;4.83;;
15667;SDS011;7934;48.710;9.024;2024-01-30T10:08:05;7.10;;;4.43;;
15667;SDS011;7934;48.710;9.024;2024-01-30T10:10:34;6.97;;;4.17;;
15667;SDS011;7934;48.710;9.024;2024-01-30T10:13:01;5.90;;;4.33;;
15667;SDS011;7934;48.710;9.024;2024-01-30T10:15:28;16.37;;;4.30;;
15667;SDS011;7934;48.710;9.024;2024-01-30T10:17:56;12.47;;;5.00;;
15667;SDS011;7934;48.710;9.024;2024-01-30T10:20:24;6.97;;;4.90;;
15667;SDS011;7934;48.710;9.024;2024-01-30T10:22:51;5.57;;;4.60;;
15667;SDS011;7934;48.710;9.024;2024-01-30T10:25:18;13.97;;;4.77;;
15667;SDS011;7934;48.710;9.024;2024-01-30T10:27:53;14.93;;;4.83;;
15667;SDS011;7934;48.710;9.024;2024-01-30T10:30:20;8.67;;;5.03;;
15667;SDS011;7934;48.710;9.024;2024-01-30T10:32:47;11.57;;;5.13;;
15667;SDS011;7934;48.710;9.024;2024-01-30T10:35:14;7.00;;;4.67;;
15667;SDS011;7934;48.710;9.024;2024-01-30T10:37:43;8.97;;;5.03;;
15667;SDS011;7934;48.710;9.024;2024-01-30T10:40:12;9.60;;;5.10;;
15667;SDS011;7934;48.710;9.024;2024-01-30T10:42:41;7.00;;;4.17;;
15667;SDS011;7934;48.710;9.024;2024-01-30T10:45:11;8.07;;;4.13;;
15667;SDS011;7934;48.710;9.024;2024-01-30T10:47:39;7.73;;;4.63;;
15667;SDS011;7934;48.710;9.024;2024-01-30T10:50:08;5.60;;;4.60;;
15667;SDS011;7934;48.710;9.024;2024-01-30T10:52:35;9.40;;;4.53;;
15667;SDS011;7934;48.710;9.024;2024-01-30T10:55:04;8.43;;;4.10;;
15667;SDS011;7934;48.710;9.024;2024-01-30T10:57:32;10.27;;;4.83;;
15667;SDS011;7934;48.710;9.024;2024-01-30T11:00:01;8.33;;;4.50;;
15667;SDS011;7934;48.710;9.024;2024-01-30T11:02:31;7.00;;;4.57;;
15667;SDS011;7934;48.710;9.024;2024-01-30T11:04:59;6.57;;;4.63;;
15667;SDS011;7934;48.710;9.024;2024-01-30T11:07:27;7.57;;;4.40;;
15667;SDS011;7934;48.710;9.024;2024-01-30T11:10:00;7.60;;;4.60;;
15667;SDS011;7934;48.710;9.024;2024-01-30T11:12:28;8.47;;;4.70;;
15667;SDS011;7934;48.710;9.024;2024-01-30T11:15:02;7.07;;;4.57;;
15667;SDS011;7934;48.710;9.024;2024-01-30T11:17:40;9.40;;;4.80;;
15667;SDS011;7934;48.710;9.024;2024-01-30T11:20:09;9.30;;;4.37;;
15667;SDS011;7934;48.710;9.024;2024-01-30T11:22:36;10.73;;;4.47;;
15667;SDS011;7934;48.710;9.024;2024-01-30T11:25:04;5.43;;;4.00;;
15667;SDS011;7934;48.710;9.024;2024-01-30T11:27:32;4.00;;;3.67;;
15667;SDS011;7934;48.710;9.024;2024-01-30T11:30:01;8.27;;;4.40;;
15667;SDS011;7934;48.710;9.024;2024-01-30T11:32:28;9.17;;;4.03;;
15667;SDS011;7934;48.710;9.024;2024-01-30T11:34:57;10.90;;;4.23;;
15667;SDS011;7934;48.710;9.024;2024-01-30T11:37:25;7.43;;;3.57;;
15667;SDS011;7934;48.710;9.024;2024-01-30T11:39:52;4.97;;;3.30;;
15667;SDS011;7934;48.710;9.024;2024-01-30T11:42:21;6.43;;;3.73;;
15667;SDS011;7934;48.710;9.024;2024-01-30T11:44:49;5.90;;;2.97;;
15667;SDS011;7934;48.710;9.024;2024-01-30T11:47:17;7.90;;;3.93;;
15667;SDS011;7934;48.710;9.024;2024-01-30T11:49:44;9.20;;;4.17;;
15667;SDS011;7934;48.710;9.024;2024-01-30T11:52:12;7.90;;;3.47;;
15667;SDS011;7934;48.710;9.024;2024-01-30T11:54:40;15.77;;;3.80;;
15667;SDS011;7934;48.710;9.024;2024-01-30T11:57:07;13.73;;;3.87;;
15667;SDS011;7934;48.710;9.024;2024-01-30T11:59:34;11.87;;;3.83;;
15667;SDS011;7934;48.710;9.024;2024-01-30T12:02:01;6.07;;;3.40;;
15667;SDS011;7934;48.710;9.024;2024-01-30T12:04:29;6.40;;;3.50;;
15667;SDS011;7934;48.710;9.024;2024-01-30T12:06:56;9.23;;;4.23;;
15667;SDS011;7934;48.710;9.024;2024-01-30T12:09:24;4.10;;;3.60;;
15667;SDS011;7934;48.710;9.024;2024-01-30T12:11:52;4.17;;;3.27;;
15667;SDS011;7934;48.710;9.024;2024-01-30T12:14:20;8.60;;;3.20;;
15667;SDS011;7934;48.710;9.024;2024-01-30T12:16:48;12.97;;;3.50;;
15667;SDS011;7934;48.710;9.024;2024-01-30T12:19:21;5.53;;;3.03;;
15667;SDS011;7934;48.710;9.024;2024-01-30T12:21:53;4.43;;;3.53;;
15667;SDS011;7934;48.710;9.024;2024-01-30T12:24:20;6.50;;;3.13;;
15667;SDS011;7934;48.710;9.024;2024-01-30T12:26:49;6.57;;;3.17;;
15667;SDS011;7934;48.710;9.024;2024-01-30T12:29:18;6.87;;;3.30;;
15667;SDS011;7934;48.710;9.024;2024-01-30T12:31:47;3.43;;;3.20;;
15667;SDS011;7934;48.710;9.024;2024-01-30T12:34:14;10.07;;;3.40;;
15667;SDS011;7934;48.710;9.024;2024-01-30T12:36:42;3.30;;;3.00;;
15667;SDS011;7934;48.710;9.024;2024-01-30T12:39:10;5.30;;;3.53;;
15667;SDS011;7934;48.710;9.024;2024-01-30T12:41:39;6.47;;;3.33;;
15667;SDS011;7934;48.710;9.024;2024-01-30T12:44:08;4.87;;;3.13;;
15667;SDS011;7934;48.710;9.024;2024-01-30T12:46:35;10.03;;;3.10;;
15667;SDS011;7934;48.710;9.024;2024-01-30T12:49:02;4.90;;;2.73;;
15667;SDS011;7934;48.710;9.024;2024-01-30T12:51:29;5.87;;;3.10;;
15667;SDS011;7934;48.710;9.024;2024-01-30T12:53:56;4.33;;;2.40;;
15667;SDS011;7934;48.710;9.024;2024-01-30T12:56:24;4.10;;;2.93;;
15667;SDS011;7934;48.710;9.024;2024-01-30T12:58:51;4.33;;;2.67;;
15667;SDS011;7934;48.710;9.024;2024-01-30T13:01:20;6.40;;;3.23;;
15667;SDS011;7934;48.710;9.024;2024-01-30T13:03:47;6.27;;;2.90;;
15667;SDS011;7934;48.710;9.024;2024-01-30T13:06:14;10.53;;;3.03;;
15667;SDS011;7934;48.710;9.024;2024-01-30T13:08:42;6.17;;;2.80;;
15667;SDS011;7934;48.710;9.024;2024-01-30T13:11:09;6.00;;;2.63;;
15667;SDS011;7934;48.710;9.024;2024-01-30T13:13:37;5.53;;;2.93;;
15667;SDS011;7934;48.710;9.024;2024-01-30T13:16:04;2.80;;;2.60;;
15667;SDS011;7934;48.710;9.024;2024-01-30T13:18:33;4.13;;;2.97;;
15667;SDS011;7934;48.710;9.024;2024-01-30T13:21:00;4.77;;;3.07;;
15667;SDS011;7934;48.710;9.024;2024-01-30T13:23:28;5.17;;;2.83;;
15667;SDS011;7934;48.710;9.024;2024-01-30T13:26:00;7.27;;;2.73;;
15667;SDS011;7934;48.710;9.024;2024-01-30T13:28:34;3.23;;;2.67;;
15667;SDS011;7934;48.710;9.024;2024-01-30T13:31:02;3.37;;;2.97;;
15667;SDS011;7934;48.710;9.024;2024-01-30T13:33:30;4.43;;;2.83;;
15667;SDS011;7934;48.710;9.024;2024-01-30T13:35:58;3.20;;;2.90;;
15667;SDS011;7934;48.710;9.024;2024-01-30T13:38:26;2.33;;;2.13;;
15667;SDS011;7934;48.710;9.024;2024-01-30T13:40:53;6.17;;;2.60;;
15667;SDS011;7934;48.710;9.024;2024-01-30T13:43:20;3.23;;;2.93;;
15667;SDS011;7934;48.710;9.024;2024-01-30T13:45:47;3.83;;;2.33;;
15667;SDS011;7934;48.710;9.024;2024-01-30T13:48:14;3.40;;;3.10;;
15667;SDS011;7934;48.710;9.024;2024-01-30T13:50:41;4.30;;;2.63;;
15667;SDS011;7934;48.710;9.024;2024-01-30T13:53:10;4.70;;;2.90;;
15667;SDS011;7934;48.710;9.024;2024-01-30T13:55:38;2.40;;;2.30;;
15667;SDS011;7934;48.710;9.024;2024-01-30T13:58:05;3.23;;;2.43;;
15667;SDS011;7934;48.710;9.024;2024-01-30T14:00:32;4.20;;;2.87;;
15667;SDS011;7934;48.710;9.024;2024-01-30T14:03:00;4.67;;;2.93;;
15667;SDS011;7934;48.710;9.024;2024-01-30T14:05:28;2.83;;;2.63;;
15667;SDS011;7934;48.710;9.024;2024-01-30T14:07:55;8.73;;;2.63;;
15667;SDS011;7934;48.710;9.024;2024-01-30T14:10:25;3.77;;;2.53;;
15667;SDS011;7934;48.710;9.024;2024-01-30T14:12:55;5.50;;;3.10;;
15667;SDS011;7934;48.710;9.024;2024-01-30T14:15:37;5.27;;;2.77;;
15667;SDS011;7934;48.710;9.024;2024-01-30T14:18:13;3.50;;;2.53;;
15667;SDS011;7934;48.710;9.024;2024-01-30T14:20:48;3.90;;;3.27;;
15667;SDS011;7934;48.710;9.024;2024-01-30T14:23:16;4.17;;;2.73;;
15667;SDS011;7934;48.710;9.024;2024-01-30T14:28:57;10.17;;;2.87;;
15667;SDS011;7934;48.710;9.024;2024-01-30T14:31:38;4.30;;;2.93;;
15667;SDS011;7934;48.710;9.024;2024-01-30T14:34:09;2.90;;;2.57;;
15667;SDS011;7934;48.710;9.024;2024-01-30T14:36:36;3.53;;;2.80;;
15667;SDS011;7934;48.710;9.024;2024-01-30T14:39:17;4.70;;;2.50;;
15667;SDS011;7934;48.710;9.024;2024-01-30T14:41:58;3.30;;;3.00;;
15667;SDS011;7934;48.710;9.024;2024-01-30T14:47:37;11.10;;;3.63;;
15667;SDS011;7934;48.710;9.024;2024-01-30T14:50:06;9.40;;;3.13;;
15667;SDS011;7934;48.710;9.024;2024-01-30T14:52:34;5.47;;;3.10;;
15667;SDS011;7934;48.710;9.024;2024-01-30T14:55:15;7.43;;;2.90;;
15667;SDS011;7934;48.710;9.024;2024-01-30T14:57:44;3.33;;;2.57;;
15667;SDS011;7934;48.710;9.024;2024-01-30T15:00:14;8.40;;;2.80;;
15667;SDS011;7934;48.710;9.024;2024-01-30T15:05:56;7.50;;;3.10;;
15667;SDS011;7934;48.710;9.024;2024-01-30T15:08:24;9.33;;;3.30;;
15667;SDS011;7934;48.710;9.024;2024-01-30T15:10:51;11.27;;;4.00;;
15667;SDS011;7934;48.710;9.024;2024-01-30T15:13:20;6.07;;;2.60;;
15667;SDS011;7934;48.710;9.024;2024-01-30T15:16:01;9.57;;;3.00;;
15667;SDS011;7934;48.710;9.024;2024-01-30T15:18:30;7.07;;;3.30;;
15667;SDS011;7934;48.710;9.024;2024-01-30T15:23:47;8.23;;;3.03;;
15667;SDS011;7934;48.710;9.024;2024-01-30T15:26:16;8.97;;;2.83;;
15667;SDS011;7934;48.710;9.024;2024-01-30T15:28:43;9.87;;;3.37;;
15667;SDS011;7934;48.710;9.024;2024-01-30T15:31:17;10.13;;;3.17;;
15667;SDS011;7934;48.710;9.024;2024-01-30T15:34:00;18.13;;;3.77;;
15667;SDS011;7934;48.710;9.024;2024-01-30T15:36:35;13.17;;;3.67;;
15667;SDS011;7934;48.710;9.024;2024-01-30T15:39:10;11.43;;;3.47;;